San Diego, California
Traffic Map
Current Weather Conditions
San Diego, California
Overcast
Overcast
21°
Feels Like: 21°
Wind Chill: 21° Ceiling: 1000
Heat Index: 21° Visibility: 10mi
Dew Point: 17° Wind: 6mph
Humidity: 78% Direction: 290° (WNW)
Pressure: 29.93in Gusts: 0mph
Raw Report DataKSAN 231751Z 29005KT 10SM BKN010 OVC014 21/17 A2993 RMK AO2 SLP135 T02060167 10206 20189 51005
Traffic Incident Summary
Active as of:
Severity:
Category:
InformationThere was an issue retrieving the traffic information for this location. Please try a different location or try again shortly.
Advertisements
Track Severe Weather on mobile